Thrift, Washington
Current Conditions -  °F | °C
As of 7:33 AM on Monday 22 Dec 2014 (Local Time) from KTCM Reporting Station
Haze Haze  
Wind Chill: 39°   Ceiling: Unl
Heat Index: 39°   Visibility: 3mi
Dew Point: 39°   Wind: 3mph
Humidity: 100%   Direction: 170°S
Pressure: 30.3"   Gusts: NA
Location:  47.0168°N, 122.279°W
Report Text: KTCM 221533Z AUTO 17003KT 3SM BR CLR 04/04 A3030 RMK AO2 VIS 1 1/4 RWY34
Loading
Personal Weather Stations






























Interactive Weather Map New forecast layout! Learn more

10-Day Weather Forecast

Advertisements
Track Severe Weather on mobile